Time;durP1;ratioP1;P1;durP2;ratioP2;P2;SDS_P1;SDS_P2;PMS_P1;PMS_P2;Temp;Humidity;BMP_temperature;BMP_pressure;BME280_temperature;BME280_humidity;BME280_pressure;Samples;Min_cycle;Max_cycle;Signal;HPM_P1;HPM_P2
2021/06/09 00:01:05;;;;;;;55.37;49.40;;;16.70;99.90;;;;;;4934063;29;20453;-73
2021/06/09 00:03:31;;;;;;;57.00;50.90;;;16.70;99.90;;;;;;4933857;29;20707;-72
2021/06/09 00:05:58;;;;;;;55.17;49.43;;;16.60;99.90;;;;;;4933623;29;20940;-72
2021/06/09 00:08:26;;;;;;;54.53;48.90;;;16.60;99.90;;;;;;4934067;29;20460;-73
2021/06/09 00:10:55;;;;;;;54.67;49.07;;;16.60;99.90;;;;;;4933886;29;20449;-73
2021/06/09 00:13:22;;;;;;;52.53;46.97;;;16.60;99.90;;;;;;4933588;29;20568;-73
2021/06/09 00:15:49;;;;;;;55.90;50.00;;;16.60;99.90;;;;;;4933485;29;20465;-73
2021/06/09 00:18:15;;;;;;;54.13;48.20;;;16.50;99.90;;;;;;4933590;29;20535;-73
2021/06/09 00:20:41;;;;;;;54.93;49.27;;;16.50;99.90;;;;;;4933323;29;20454;-73
2021/06/09 00:23:09;;;;;;;53.50;48.00;;;16.50;99.90;;;;;;4933733;29;21109;-73
2021/06/09 00:25:37;;;;;;;57.53;47.50;;;16.50;99.90;;;;;;4933540;29;20818;-73
2021/06/09 00:28:05;;;;;;;55.60;48.70;;;16.50;99.90;;;;;;4933588;29;20450;-73
2021/06/09 00:30:33;;;;;;;55.80;50.10;;;16.50;99.90;;;;;;4933682;29;20544;-73
2021/06/09 00:33:01;;;;;;;57.00;50.67;;;16.50;99.90;;;;;;4933134;29;20481;-73
2021/06/09 00:35:28;;;;;;;59.20;52.33;;;16.40;99.90;;;;;;4933379;29;20462;-72
2021/06/09 00:37:54;;;;;;;57.53;51.73;;;16.40;99.90;;;;;;4933519;29;20489;-72
2021/06/09 00:40:21;;;;;;;54.67;48.17;;;16.40;99.90;;;;;;4933415;29;20450;-72
2021/06/09 00:43:06;;;;;;;59.00;51.57;;;16.40;99.90;;;;;;4933257;29;20476;-72
2021/06/09 00:45:34;;;;;;;56.90;51.40;;;16.40;99.90;;;;;;4933523;29;20561;-72
2021/06/09 00:48:00;;;;;;;58.27;52.40;;;16.40;99.90;;;;;;4933441;29;20457;-73
2021/06/09 00:50:26;;;;;;;54.87;48.90;;;16.40;99.90;;;;;;4933223;29;20462;-72
2021/06/09 00:52:52;;;;;;;61.23;54.63;;;16.40;99.90;;;;;;4933517;29;20456;-71
2021/06/09 00:55:19;;;;;;;58.43;52.00;;;16.40;99.90;;;;;;4933389;29;20450;-72
2021/06/09 00:57:49;;;;;;;60.53;54.00;;;16.40;99.90;;;;;;4933430;29;20855;-72
2021/06/09 01:00:18;;;;;;;56.27;50.40;;;16.30;99.90;;;;;;4933176;29;20476;-72
2021/06/09 01:02:44;;;;;;;63.40;51.90;;;16.40;99.90;;;;;;4933132;29;20454;-72
2021/06/09 01:05:11;;;;;;;59.00;51.60;;;16.40;99.90;;;;;;4933652;29;20541;-73
2021/06/09 01:07:38;;;;;;;62.67;52.23;;;16.50;99.90;;;;;;4933194;29;20798;-72
2021/06/09 01:10:06;;;;;;;61.00;54.40;;;16.40;99.90;;;;;;4933228;29;20462;-72
2021/06/09 01:12:33;;;;;;;65.30;53.57;;;16.40;99.90;;;;;;4933246;29;20817;-72
2021/06/09 01:15:00;;;;;;;56.80;50.40;;;16.40;99.90;;;;;;4933236;29;20461;-72
2021/06/09 01:17:28;;;;;;;62.47;52.07;;;16.40;99.90;;;;;;4933076;29;20496;-71
2021/06/09 01:19:54;;;;;;;55.87;49.80;;;16.40;99.90;;;;;;4933468;29;20926;-72
2021/06/09 01:22:22;;;;;;;55.77;49.50;;;16.40;99.90;;;;;;4933062;29;20460;-71
2021/06/09 01:24:48;;;;;;;58.37;50.40;;;16.40;99.90;;;;;;4933017;29;20466;-72
2021/06/09 01:27:15;;;;;;;56.27;50.47;;;16.50;99.90;;;;;;4933226;29;20453;-71
2021/06/09 01:29:41;;;;;;;57.87;51.47;;;16.40;99.90;;;;;;4933153;29;20453;-71
2021/06/09 01:32:08;;;;;;;76.53;56.10;;;16.40;99.90;;;;;;4932848;29;20465;-72
2021/06/09 01:34:34;;;;;;;57.93;50.47;;;16.40;99.90;;;;;;4936026;29;20481;-72
2021/06/09 01:37:01;;;;;;;68.97;56.47;;;16.50;99.90;;;;;;4936573;29;20454;-71
2021/06/09 01:39:28;;;;;;;62.57;55.73;;;16.40;99.90;;;;;;4936592;29;20476;-72
2021/06/09 01:41:55;;;;;;;65.57;53.17;;;16.40;99.90;;;;;;4936375;29;20460;-72
2021/06/09 01:44:21;;;;;;;67.53;54.60;;;16.40;99.90;;;;;;4936480;29;20460;-72
2021/06/09 01:46:48;;;;;;;60.20;52.57;;;16.40;99.90;;;;;;4936324;29;20495;-71
2021/06/09 01:49:15;;;;;;;61.07;54.10;;;16.50;99.90;;;;;;4936343;29;20453;-71
2021/06/09 01:51:41;;;;;;;59.17;52.60;;;16.50;99.90;;;;;;4936440;29;20830;-71
2021/06/09 01:54:09;;;;;;;58.93;52.00;;;16.50;99.90;;;;;;4936395;29;20460;-71
2021/06/09 01:56:38;;;;;;;59.47;52.20;;;16.50;99.90;;;;;;4936085;29;20453;-71
2021/06/09 01:59:10;;;;;;;59.50;52.20;;;16.40;99.90;;;;;;4935931;29;20496;-73
2021/06/09 02:01:37;;;;;;;62.17;52.53;;;16.40;99.90;;;;;;4936054;29;20472;-72
2021/06/09 02:04:04;;;;;;;59.13;51.80;;;16.40;99.90;;;;;;4936098;29;20462;-73
2021/06/09 02:06:30;;;;;;;56.90;50.60;;;16.40;99.90;;;;;;4935710;29;20458;-74
2021/06/09 02:08:57;;;;;;;60.90;53.97;;;16.40;99.90;;;;;;4935826;29;20450;-74
2021/06/09 02:11:23;;;;;;;60.93;53.40;;;16.30;99.90;;;;;;4935982;29;20493;-74
2021/06/09 02:13:51;;;;;;;60.83;50.63;;;16.30;99.90;;;;;;4935939;29;20458;-73
2021/06/09 02:16:17;;;;;;;58.57;51.43;;;16.30;99.90;;;;;;4935705;29;20457;-73
2021/06/09 02:18:43;;;;;;;61.00;51.50;;;16.30;99.90;;;;;;4935724;29;20500;-73
2021/06/09 02:21:09;;;;;;;63.03;54.33;;;16.30;99.90;;;;;;4935599;29;20460;-73
2021/06/09 02:23:35;;;;;;;62.37;54.03;;;16.20;99.90;;;;;;4935700;29;20450;-74
2021/06/09 02:26:02;;;;;;;71.30;54.10;;;16.20;99.90;;;;;;4935580;29;20460;-74
2021/06/09 02:28:30;;;;;;;60.33;50.43;;;16.20;99.90;;;;;;4935559;29;20454;-72
2021/06/09 02:30:59;;;;;;;62.77;51.37;;;16.20;99.90;;;;;;4935629;29;20464;-71
2021/06/09 02:33:25;;;;;;;62.70;52.30;;;16.20;99.90;;;;;;4935122;29;20482;-70
2021/06/09 02:35:54;;;;;;;62.00;53.30;;;16.20;99.90;;;;;;4935496;29;20480;-71
2021/06/09 02:38:21;;;;;;;58.90;48.40;;;16.20;99.90;;;;;;4935311;29;20497;-71
2021/06/09 02:40:51;;;;;;;61.63;50.17;;;16.20;99.90;;;;;;4935450;29;20461;-71
2021/06/09 02:43:18;;;;;;;64.30;50.90;;;16.20;99.90;;;;;;4934985;29;20457;-72
2021/06/09 02:45:49;;;;;;;59.10;52.07;;;16.20;99.90;;;;;;4935331;29;20454;-72
2021/06/09 02:48:18;;;;;;;65.10;51.27;;;16.20;99.90;;;;;;4935462;29;20444;-72
2021/06/09 02:50:45;;;;;;;70.07;53.67;;;16.20;99.90;;;;;;4935060;29;20464;-71
2021/06/09 02:53:19;;;;;;;69.43;54.10;;;16.20;99.90;;;;;;4935476;29;20466;-72
2021/06/09 02:55:59;;;;;;;67.33;53.07;;;16.20;99.90;;;;;;4935100;29;20821;-73
2021/06/09 02:58:34;;;;;;;67.40;54.50;;;16.10;99.90;;;;;;4934878;29;20840;-72
2021/06/09 03:01:06;;;;;;;70.83;54.27;;;16.20;99.90;;;;;;4935071;29;20464;-72
2021/06/09 03:03:43;;;;;;;70.53;54.17;;;16.10;99.90;;;;;;4935043;29;20887;-71
2021/06/09 03:06:17;;;;;;;65.90;53.30;;;16.20;99.90;;;;;;4935229;29;20449;-71
2021/06/09 03:08:51;;;;;;;59.13;52.27;;;16.20;99.90;;;;;;4935045;29;20784;-71
2021/06/09 03:11:27;;;;;;;66.57;54.23;;;16.20;99.90;;;;;;4934512;29;20472;-71
2021/06/09 03:14:01;;;;;;;65.13;52.03;;;16.20;99.90;;;;;;4934885;29;20891;-71
2021/06/09 03:16:30;;;;;;;63.60;53.00;;;16.30;99.90;;;;;;4934755;29;20458;-72
2021/06/09 03:19:04;;;;;;;65.03;51.37;;;16.20;99.90;;;;;;4934569;29;20485;-72
2021/06/09 03:21:39;;;;;;;59.97;50.43;;;16.10;99.90;;;;;;4934601;29;20440;-73
2021/06/09 03:24:12;;;;;;;60.50;50.60;;;16.10;99.90;;;;;;4934595;29;20464;-73
2021/06/09 03:26:47;;;;;;;59.90;49.03;;;16.00;99.90;;;;;;4934497;29;20960;-73
2021/06/09 03:29:33;;;;;;;57.67;51.37;;;16.00;99.90;;;;;;4934523;29;20460;-73
2021/06/09 03:32:05;;;;;;;59.47;49.67;;;16.10;99.90;;;;;;4934193;29;20472;-73
2021/06/09 03:34:37;;;;;;;58.00;49.70;;;16.00;99.90;;;;;;4934123;29;20767;-75
2021/06/09 03:37:06;;;;;;;58.27;49.80;;;16.00;99.90;;;;;;4934190;29;21030;-74
2021/06/09 03:39:35;;;;;;;52.07;45.67;;;16.10;99.90;;;;;;4934122;29;20490;-73
2021/06/09 03:42:02;;;;;;;57.93;50.43;;;16.00;99.90;;;;;;4934211;29;20460;-73
2021/06/09 03:44:32;;;;;;;53.67;48.03;;;16.00;99.90;;;;;;4934261;29;20453;-73
2021/06/09 03:46:59;;;;;;;55.20;48.33;;;16.10;99.90;;;;;;4933975;29;20466;-73
2021/06/09 03:49:27;;;;;;;54.90;46.77;;;16.10;99.90;;;;;;4934097;29;20454;-73
2021/06/09 03:51:58;;;;;;;50.33;45.03;;;16.10;99.90;;;;;;4934099;29;20454;-74
2021/06/09 03:54:29;;;;;;;54.33;47.13;;;16.20;99.90;;;;;;4934202;29;20461;-72
2021/06/09 03:56:57;;;;;;;50.83;45.43;;;16.20;99.90;;;;;;4933854;29;21074;-72
2021/06/09 03:59:24;;;;;;;48.87;43.57;;;16.10;99.90;;;;;;4933894;29;20489;-73
2021/06/09 04:01:52;;;;;;;46.73;42.00;;;16.10;99.90;;;;;;4933538;29;20480;-72
2021/06/09 04:04:21;;;;;;;48.30;43.30;;;16.10;99.90;;;;;;4933765;29;20453;-72
2021/06/09 04:06:51;;;;;;;49.67;44.63;;;16.20;99.90;;;;;;4933760;29;20556;-73
2021/06/09 04:09:22;;;;;;;47.60;42.27;;;16.20;99.90;;;;;;4933729;29;20449;-73
2021/06/09 04:11:52;;;;;;;46.83;41.80;;;16.20;99.90;;;;;;4933772;29;20449;-73
2021/06/09 04:14:21;;;;;;;48.03;43.00;;;16.30;99.90;;;;;;4933410;29;20458;-73
2021/06/09 04:16:48;;;;;;;50.00;44.80;;;16.20;99.90;;;;;;4933723;29;20453;-73
2021/06/09 04:19:17;;;;;;;46.43;41.57;;;16.20;99.90;;;;;;4933487;29;20496;-72
2021/06/09 04:21:43;;;;;;;45.43;40.83;;;16.20;99.90;;;;;;4933521;29;21022;-74
2021/06/09 04:24:11;;;;;;;47.17;42.03;;;16.20;99.90;;;;;;4933580;29;20508;-73
2021/06/09 04:26:40;;;;;;;48.93;43.77;;;16.20;99.90;;;;;;4933546;29;20465;-72
2021/06/09 04:29:07;;;;;;;49.40;44.60;;;16.20;99.90;;;;;;4933416;29;20453;-72
2021/06/09 04:31:34;;;;;;;51.00;45.80;;;16.30;99.90;;;;;;4933388;29;20477;-73
2021/06/09 04:34:01;;;;;;;50.10;44.93;;;16.40;99.90;;;;;;4933180;29;20488;-74
2021/06/09 04:36:27;;;;;;;52.90;47.70;;;16.40;99.90;;;;;;4933726;29;20943;-72
2021/06/09 04:38:53;;;;;;;56.67;50.57;;;16.30;99.90;;;;;;4933456;29;21038;-73
2021/06/09 04:41:20;;;;;;;51.17;45.90;;;16.30;99.90;;;;;;4933438;29;20457;-73
2021/06/09 04:43:48;;;;;;;54.20;48.30;;;16.30;99.90;;;;;;4933237;29;21189;-73
2021/06/09 04:46:17;;;;;;;55.30;47.63;;;16.30;99.90;;;;;;4933150;29;20476;-72
2021/06/09 04:48:59;;;;;;;60.73;46.90;;;16.40;99.90;;;;;;4933395;29;20453;-73
2021/06/09 04:51:29;;;;;;;71.67;48.47;;;16.30;99.90;;;;;;4933309;29;20956;-73
2021/06/09 04:53:55;;;;;;;69.83;52.07;;;16.40;99.90;;;;;;4933295;29;20465;-73
2021/06/09 04:56:21;;;;;;;75.60;50.33;;;16.30;99.90;;;;;;4932927;29;20457;-73
2021/06/09 04:58:49;;;;;;;72.40;49.77;;;16.30;99.90;;;;;;4933119;29;20914;-73
2021/06/09 05:01:15;;;;;;;78.77;53.50;;;16.30;99.90;;;;;;4933070;29;20549;-72
2021/06/09 05:03:42;;;;;;;69.53;50.17;;;16.40;99.90;;;;;;4933385;29;20465;-72
2021/06/09 05:06:08;;;;;;;75.73;49.27;;;16.50;99.90;;;;;;4933347;29;20488;-73
2021/06/09 05:08:34;;;;;;;66.40;48.77;;;16.50;99.90;;;;;;4936787;29;20453;-71
2021/06/09 05:11:03;;;;;;;64.43;49.80;;;16.60;99.90;;;;;;4936706;29;20472;-72
2021/06/09 05:13:32;;;;;;;66.40;48.90;;;16.70;99.90;;;;;;4936888;29;20457;-71
2021/06/09 05:16:02;;;;;;;64.57;47.80;;;16.70;99.90;;;;;;4936888;29;20561;-71
2021/06/09 05:18:36;;;;;;;62.20;45.80;;;16.90;99.90;;;;;;4952127;29;20488;-71
2021/06/09 05:21:03;;;;;;;63.73;48.07;;;16.90;99.90;;;;;;4955969;29;20906;-72
2021/06/09 05:23:33;;;;;;;60.33;45.90;;;17.00;99.90;;;;;;4956066;29;20452;-72
2021/06/09 05:26:02;;;;;;;73.33;48.47;;;17.20;99.90;;;;;;4955630;28;20943;-72
2021/06/09 05:28:32;;;;;;;64.63;47.93;;;17.20;99.90;;;;;;4955760;29;20606;-72
2021/06/09 05:31:00;;;;;;;64.20;50.80;;;17.30;99.90;;;;;;4951476;28;20822;-72
2021/06/09 05:33:30;;;;;;;64.70;47.40;;;17.40;99.90;;;;;;4956552;28;20484;-71
2021/06/09 05:35:57;;;;;;;61.23;47.50;;;17.50;99.90;;;;;;4946628;28;20570;-71
2021/06/09 05:38:25;;;;;;;59.03;47.47;;;17.50;99.90;;;;;;4956223;29;20527;-71
2021/06/09 05:40:52;;;;;;;50.77;45.17;;;17.80;99.90;;;;;;4956138;29;20478;-71
2021/06/09 05:43:20;;;;;;;52.73;47.13;;;18.00;99.90;;;;;;4956111;28;20977;-71
2021/06/09 05:45:48;;;;;;;46.87;42.03;;;18.00;99.90;;;;;;4953981;28;20491;-71
2021/06/09 05:48:16;;;;;;;49.00;43.37;;;18.10;99.90;;;;;;4955784;28;20966;-71
2021/06/09 05:50:42;;;;;;;51.60;46.00;;;18.20;99.90;;;;;;4955325;28;20823;-72
2021/06/09 05:53:09;;;;;;;49.77;41.77;;;18.30;99.90;;;;;;4955853;29;20457;-71
2021/06/09 05:55:35;;;;;;;48.17;43.30;;;18.30;99.90;;;;;;4955664;29;20464;-72
2021/06/09 05:58:04;;;;;;;45.17;40.43;;;18.60;99.90;;;;;;4955414;28;20496;-71
2021/06/09 06:00:32;;;;;;;44.80;40.27;;;19.20;99.90;;;;;;4955775;28;20558;-71
2021/06/09 06:03:02;;;;;;;45.57;40.73;;;19.50;99.90;;;;;;4955575;29;20457;-71
2021/06/09 06:05:31;;;;;;;44.47;39.80;;;19.50;99.90;;;;;;4955941;29;20453;-70
2021/06/09 06:07:57;;;;;;;43.30;38.90;;;19.60;99.90;;;;;;4956090;29;20448;-71
2021/06/09 06:10:23;;;;;;;41.10;37.60;;;19.90;99.90;;;;;;4955932;29;20456;-72
2021/06/09 06:12:51;;;;;;;39.27;35.73;;;20.60;99.90;;;;;;4955537;29;20475;-75
2021/06/09 06:15:18;;;;;;;39.47;35.87;;;21.20;99.90;;;;;;4955782;29;20452;-74
2021/06/09 06:17:46;;;;;;;36.47;33.47;;;21.90;99.90;;;;;;4955240;28;20456;-72
2021/06/09 06:20:17;;;;;;;36.47;33.57;;;22.70;99.90;;;;;;4954924;29;20448;-74
2021/06/09 06:22:47;;;;;;;37.47;34.30;;;22.90;99.90;;;;;;4955432;29;20449;-73
2021/06/09 06:25:14;;;;;;;40.07;36.70;;;23.00;99.90;;;;;;4955119;29;20483;-73
2021/06/09 06:27:41;;;;;;;38.77;35.17;;;22.50;99.90;;;;;;4955463;28;20463;-73
2021/06/09 06:30:08;;;;;;;37.60;34.20;;;22.00;99.90;;;;;;4955256;29;20818;-73
2021/06/09 06:32:35;;;;;;;37.77;34.23;;;21.90;99.90;;;;;;4954834;28;20472;-73
2021/06/09 06:35:03;;;;;;;38.57;35.27;;;22.30;99.90;;;;;;4954859;29;20480;-72
